createdAt,value
2018-08-14T00:00:11.093Z,61.10
2018-08-14T00:01:11.124Z,62.80
2018-08-14T00:02:11.156Z,61.20
2018-08-14T00:03:11.206Z,67.30
2018-08-14T00:04:11.253Z,68.20
2018-08-14T00:05:11.303Z,70.60
2018-08-14T00:06:11.321Z,60.10
2018-08-14T00:07:11.384Z,60.00
2018-08-14T00:08:11.421Z,61.50
2018-08-14T00:09:13.013Z,62.60
2018-08-14T00:10:13.032Z,62.80
2018-08-14T00:11:11.556Z,65.20
2018-08-14T00:12:11.594Z,68.40
2018-08-14T00:13:11.615Z,69.60
2018-08-14T00:14:11.665Z,70.20
2018-08-14T00:15:11.740Z,72.80
2018-08-14T00:16:11.766Z,83.90
2018-08-14T00:17:11.918Z,83.50
2018-08-14T00:18:11.845Z,80.50
2018-08-14T00:19:11.912Z,75.30
2018-08-14T00:20:11.923Z,75.00
2018-08-14T00:21:12.004Z,76.90
2018-08-14T00:22:12.011Z,114.90
2018-08-14T00:23:12.099Z,73.40
2018-08-14T00:24:12.076Z,71.90
2018-08-14T00:25:12.114Z,69.40
2018-08-14T00:26:12.191Z,74.60
2018-08-14T00:27:12.376Z,70.00
2018-08-14T00:28:12.255Z,76.30
2018-08-14T00:29:12.347Z,76.60
2018-08-14T00:30:12.379Z,72.10
2018-08-14T00:31:12.401Z,68.00
2018-08-14T00:32:12.413Z,77.50
2018-08-14T00:33:12.450Z,103.40
2018-08-14T00:34:12.658Z,108.30
2018-08-14T00:35:12.561Z,109.70
2018-08-14T00:36:12.590Z,114.30
2018-08-14T00:37:12.650Z,113.20
2018-08-14T00:38:12.684Z,109.10
2018-08-14T00:39:12.738Z,113.30
2018-08-14T00:40:12.794Z,122.80
2018-08-14T00:41:12.812Z,120.00
2018-08-14T00:42:12.829Z,115.20
2018-08-14T00:43:12.918Z,117.80
2018-08-14T00:44:13.114Z,115.10
2018-08-14T00:45:12.988Z,110.30
2018-08-14T00:46:13.012Z,110.40
2018-08-14T00:47:13.057Z,105.50
2018-08-14T00:48:13.085Z,100.10
2018-08-14T00:49:13.147Z,90.50
2018-08-14T00:50:13.184Z,87.30
2018-08-14T00:51:13.220Z,79.90
2018-08-14T00:52:13.272Z,78.00
2018-08-14T00:53:13.321Z,72.30
2018-08-14T00:54:13.502Z,67.00
2018-08-14T00:55:13.410Z,66.60
2018-08-14T00:56:13.456Z,64.10
2018-08-14T00:57:13.445Z,62.40
2018-08-14T00:58:13.537Z,62.00
2018-08-14T00:59:13.535Z,67.40
2018-08-14T01:00:13.590Z,56.60
2018-08-14T01:01:13.648Z,56.90
2018-08-14T01:02:13.679Z,58.10
2018-08-14T01:03:13.719Z,60.70
2018-08-14T01:04:13.955Z,58.20
2018-08-14T01:05:13.804Z,64.40
2018-08-14T01:06:13.871Z,97.90
2018-08-14T01:07:13.892Z,60.40
2018-08-14T01:08:13.931Z,75.90
2018-08-14T01:09:14.000Z,74.90
2018-08-14T01:10:14.009Z,83.00
2018-08-14T01:11:14.089Z,81.80
2018-08-14T01:12:14.079Z,85.10
2018-08-14T01:13:14.156Z,83.30
2018-08-14T01:14:14.403Z,88.40
2018-08-14T01:15:14.241Z,86.00
2018-08-14T01:16:14.282Z,84.90
2018-08-14T01:17:14.326Z,86.00
2018-08-14T01:18:14.384Z,85.60
2018-08-14T01:19:14.385Z,83.00
2018-08-14T01:20:14.494Z,80.10
2018-08-14T01:21:14.643Z,83.20
2018-08-14T01:22:14.504Z,78.60
2018-08-14T01:23:14.583Z,80.60
2018-08-14T01:24:14.594Z,82.50
2018-08-14T01:25:14.656Z,78.90
2018-08-14T01:26:14.685Z,77.80
2018-08-14T01:27:14.729Z,81.30
2018-08-14T01:28:14.788Z,89.80
2018-08-14T01:29:14.807Z,80.10
2018-08-14T01:30:14.852Z,78.50
2018-08-14T01:31:15.043Z,75.40
2018-08-14T01:32:40.638Z,73.10
2018-08-14T01:33:15.013Z,76.70
2018-08-14T01:34:15.088Z,75.10
2018-08-14T01:35:15.038Z,108.50
2018-08-14T01:36:15.337Z,78.90
2018-08-14T01:37:15.163Z,81.00
2018-08-14T01:38:15.170Z,81.60
2018-08-14T01:39:15.259Z,84.50
2018-08-14T01:40:15.289Z,74.50
2018-08-14T01:41:15.330Z,77.20
2018-08-14T01:42:15.335Z,89.90
2018-08-14T01:43:15.551Z,76.40
2018-08-14T01:44:15.463Z,82.50
2018-08-14T01:45:15.499Z,88.90
2018-08-14T01:46:15.543Z,96.60
2018-08-14T01:47:15.569Z,83.40
2018-08-14T01:48:15.807Z,82.40
2018-08-14T01:49:15.622Z,83.80
2018-08-14T01:50:15.693Z,86.20
2018-08-14T01:51:15.732Z,152.80
2018-08-14T01:52:15.793Z,81.00
2018-08-14T01:53:15.797Z,121.00
2018-08-14T01:54:15.872Z,76.60
2018-08-14T01:55:15.907Z,91.90
2018-08-14T01:56:15.938Z,112.10
2018-08-14T01:57:15.980Z,80.50
2018-08-14T01:58:16.066Z,83.50
2018-08-14T01:59:16.257Z,87.00
2018-08-14T02:00:16.106Z,84.50
2018-08-14T02:01:16.175Z,88.20
2018-08-14T02:02:16.180Z,78.10
2018-08-14T02:03:16.271Z,83.50
2018-08-14T02:04:16.250Z,91.00
2018-08-14T02:05:16.511Z,85.20
2018-08-14T02:06:16.355Z,83.90
2018-08-14T02:07:16.410Z,79.80
2018-08-14T02:08:16.452Z,68.50
2018-08-14T02:09:16.486Z,82.90
2018-08-14T02:10:16.509Z,78.80
2018-08-14T02:11:16.766Z,79.00
2018-08-14T02:12:16.607Z,80.90
2018-08-14T02:13:16.628Z,76.00
2018-08-14T02:14:16.710Z,81.50
2018-08-14T02:15:16.731Z,75.30
2018-08-14T02:16:16.806Z,75.60
2018-08-14T02:17:17.062Z,73.80
2018-08-14T02:18:16.851Z,66.10
2018-08-14T02:19:16.893Z,64.80
2018-08-14T02:20:16.930Z,66.50
2018-08-14T02:21:16.965Z,60.80
2018-08-14T02:22:16.990Z,61.00
2018-08-14T02:23:17.197Z,56.80
2018-08-14T02:24:17.083Z,75.00
2018-08-14T02:25:17.155Z,65.60
2018-08-14T02:26:17.168Z,56.20
2018-08-14T02:27:17.228Z,64.90
2018-08-14T02:28:17.247Z,69.90
2018-08-14T02:29:17.493Z,67.00
2018-08-14T02:30:17.331Z,69.10
2018-08-14T02:31:17.382Z,72.50
2018-08-14T02:32:17.417Z,70.30
2018-08-14T02:33:17.481Z,76.20
2018-08-14T02:34:17.570Z,69.00
2018-08-14T02:35:17.698Z,401.30
2018-08-14T02:36:17.584Z,89.70
2018-08-14T02:37:17.634Z,94.00
2018-08-14T02:38:17.665Z,63.80
2018-08-14T02:39:17.718Z,76.10
2018-08-14T02:40:17.744Z,78.70
2018-08-14T02:41:17.975Z,83.70
2018-08-14T02:42:17.829Z,80.70
2018-08-14T02:43:17.875Z,79.60
2018-08-14T02:44:17.896Z,78.00
2018-08-14T02:45:17.960Z,103.90
2018-08-14T02:46:18.006Z,80.20
2018-08-14T02:47:18.040Z,97.30
2018-08-14T02:48:18.061Z,108.00
2018-08-14T02:49:18.099Z,106.40
2018-08-14T02:50:18.156Z,83.10
2018-08-14T02:51:18.325Z,76.70
2018-08-14T02:52:18.206Z,94.60
2018-08-14T02:53:18.259Z,98.20
2018-08-14T02:54:18.301Z,86.80
2018-08-14T02:55:18.347Z,67.60
2018-08-14T02:56:18.455Z,101.00
2018-08-14T02:57:18.436Z,84.00
2018-08-14T02:58:18.609Z,88.20
2018-08-14T02:59:18.540Z,83.30
2018-08-14T03:00:18.569Z,78.40
2018-08-14T03:01:18.596Z,83.90
2018-08-14T03:02:18.634Z,84.20
2018-08-14T03:03:18.690Z,85.80
2018-08-14T03:04:18.710Z,84.60
2018-08-14T03:05:18.819Z,90.60
2018-08-14T03:06:18.820Z,87.40
2018-08-14T03:07:18.869Z,90.50
2018-08-14T03:08:19.051Z,81.50
2018-08-14T03:09:18.968Z,86.80
2018-08-14T03:10:18.960Z,94.60
2018-08-14T03:11:18.998Z,92.00
2018-08-14T03:12:19.076Z,94.80
2018-08-14T03:13:19.106Z,95.60
2018-08-14T03:14:19.128Z,95.20
2018-08-14T03:15:19.298Z,96.60
2018-08-14T03:16:19.222Z,145.50
2018-08-14T03:17:19.269Z,80.50
2018-08-14T03:18:19.294Z,81.30
2018-08-14T03:19:19.339Z,93.60
2018-08-14T03:20:19.403Z,96.30
2018-08-14T03:21:19.631Z,90.80
2018-08-14T03:22:19.457Z,93.10
2018-08-14T03:23:19.501Z,91.70
2018-08-14T03:24:19.541Z,69.80
2018-08-14T03:25:19.587Z,77.80
2018-08-14T03:26:19.620Z,102.90
2018-08-14T03:27:19.691Z,93.30
2018-08-14T03:28:19.695Z,71.20
2018-08-14T03:29:19.742Z,94.10
2018-08-14T03:30:19.791Z,98.90
2018-08-14T03:31:19.831Z,79.40
2018-08-14T03:32:20.069Z,95.60
2018-08-14T03:33:19.967Z,115.80
2018-08-14T03:34:19.951Z,78.50
2018-08-14T03:35:19.986Z,65.50
2018-08-14T03:36:20.052Z,84.10
2018-08-14T03:37:20.078Z,91.50
2018-08-14T03:38:20.093Z,78.50
2018-08-14T03:39:20.299Z,76.60
2018-08-14T03:40:20.208Z,85.00
2018-08-14T03:41:20.237Z,91.10
2018-08-14T03:42:20.292Z,87.40
2018-08-14T03:43:20.315Z,82.10
2018-08-14T03:44:20.346Z,88.80
2018-08-14T03:45:20.532Z,93.00
2018-08-14T03:46:20.429Z,78.70
2018-08-14T03:47:20.510Z,88.00
2018-08-14T03:48:20.516Z,92.50
2018-08-14T03:49:20.562Z,98.00
2018-08-14T03:50:20.618Z,93.00
2018-08-14T03:51:20.789Z,77.80
2018-08-14T03:52:20.684Z,104.70
2018-08-14T03:53:20.709Z,76.20
2018-08-14T03:54:20.776Z,90.60
2018-08-14T03:55:20.775Z,88.20
2018-08-14T03:56:20.852Z,74.50
2018-08-14T03:57:21.077Z,81.50
2018-08-14T03:58:20.904Z,92.90
2018-08-14T03:59:20.989Z,85.50
2018-08-14T04:00:20.999Z,89.80
2018-08-14T04:01:21.056Z,73.90
2018-08-14T04:02:21.320Z,87.60
2018-08-14T04:03:21.132Z,88.50
2018-08-14T04:04:21.155Z,92.30
2018-08-14T04:05:21.221Z,96.10
2018-08-14T04:06:21.283Z,93.00
2018-08-14T04:07:21.309Z,89.00
2018-08-14T04:08:21.365Z,88.50
2018-08-14T04:09:21.525Z,85.20
2018-08-14T04:10:21.414Z,88.90
2018-08-14T04:11:21.487Z,61.00
2018-08-14T04:12:21.496Z,88.70
2018-08-14T04:13:21.556Z,80.10
2018-08-14T04:14:21.854Z,63.90
2018-08-14T04:15:21.619Z,83.70
2018-08-14T04:16:21.664Z,65.30
2018-08-14T04:17:21.717Z,75.60
2018-08-14T04:18:21.812Z,77.90
2018-08-14T04:19:21.782Z,70.30
2018-08-14T04:20:21.895Z,82.10
2018-08-14T04:21:21.857Z,76.00
2018-08-14T04:22:21.921Z,77.20
2018-08-14T04:23:21.972Z,77.30
2018-08-14T04:24:22.183Z,79.20
2018-08-14T04:25:22.027Z,85.70
2018-08-14T04:26:22.092Z,81.10
2018-08-14T04:27:22.111Z,84.40
2018-08-14T04:28:22.147Z,63.70
2018-08-14T04:29:22.205Z,86.70
2018-08-14T04:30:22.222Z,68.80
2018-08-14T04:31:22.280Z,77.00
2018-08-14T04:32:22.346Z,81.60
2018-08-14T04:33:22.372Z,79.40
2018-08-14T04:34:22.384Z,80.70
2018-08-14T04:35:22.640Z,81.10
2018-08-14T04:36:22.502Z,80.60
2018-08-14T04:37:22.531Z,86.80
2018-08-14T04:38:22.587Z,68.70
2018-08-14T04:39:22.634Z,74.40
2018-08-14T04:40:22.643Z,68.90
2018-08-14T04:41:22.710Z,67.30
2018-08-14T04:42:22.732Z,61.10
2018-08-14T04:43:22.779Z,61.40
2018-08-14T04:44:22.812Z,69.70
2018-08-14T04:45:23.067Z,84.90
2018-08-14T04:46:22.913Z,64.00
2018-08-14T04:47:22.947Z,65.30
2018-08-14T04:48:22.984Z,55.00
2018-08-14T04:49:23.013Z,47.70
2018-08-14T04:50:23.070Z,61.90
2018-08-14T04:51:23.315Z,60.50
2018-08-14T04:52:23.144Z,63.60
2018-08-14T04:53:23.190Z,60.50
2018-08-14T04:54:23.218Z,55.10
2018-08-14T04:55:23.267Z,63.20
2018-08-14T04:56:23.308Z,60.40
2018-08-14T04:57:23.348Z,100.80
2018-08-14T04:58:23.376Z,57.70
2018-08-14T04:59:23.429Z,53.70
2018-08-14T05:00:23.462Z,59.50
2018-08-14T05:01:23.493Z,63.10
2018-08-14T05:02:23.551Z,64.90
2018-08-14T05:03:23.665Z,52.60
2018-08-14T05:04:23.633Z,68.20
2018-08-14T05:05:23.679Z,82.90
2018-08-14T05:06:23.728Z,61.40
2018-08-14T05:07:23.953Z,89.20
2018-08-14T05:08:23.777Z,65.00
2018-08-14T05:09:23.819Z,70.10
2018-08-14T05:10:23.884Z,67.30
2018-08-14T05:11:23.939Z,70.70
2018-08-14T05:12:23.928Z,71.60
2018-08-14T05:13:23.964Z,71.10
2018-08-14T05:14:24.095Z,66.00
2018-08-14T05:15:24.092Z,69.50
2018-08-14T05:16:24.181Z,80.90
2018-08-14T05:17:24.201Z,70.00
2018-08-14T05:18:24.387Z,72.20
2018-08-14T05:19:24.448Z,71.80
2018-08-14T05:20:24.296Z,67.90
2018-08-14T05:21:24.341Z,69.10
2018-08-14T05:22:24.343Z,72.50
2018-08-14T05:23:24.409Z,58.60
2018-08-14T05:24:24.435Z,65.80
2018-08-14T05:25:24.692Z,61.40
2018-08-14T05:26:24.517Z,66.80
2018-08-14T05:27:24.574Z,50.00
2018-08-14T05:28:24.612Z,58.40
2018-08-14T05:29:24.642Z,60.10
2018-08-14T05:30:24.716Z,61.10
2018-08-14T05:31:24.756Z,64.40
2018-08-14T05:32:24.758Z,61.50
2018-08-14T05:33:24.900Z,55.50
2018-08-14T05:34:24.868Z,51.00
2018-08-14T05:35:25.032Z,45.90
2018-08-14T05:36:24.933Z,61.40
2018-08-14T05:37:24.995Z,64.90
2018-08-14T05:38:25.038Z,57.80
2018-08-14T05:39:25.051Z,62.70
2018-08-14T05:40:25.093Z,77.10
2018-08-14T05:41:25.150Z,53.60
2018-08-14T05:42:25.173Z,59.80
2018-08-14T05:43:25.281Z,63.60
2018-08-14T05:44:25.275Z,67.60
2018-08-14T05:45:25.440Z,68.00
2018-08-14T05:46:25.339Z,67.90
2018-08-14T05:47:25.392Z,74.30
2018-08-14T05:48:25.416Z,73.00
2018-08-14T05:49:25.451Z,65.50
2018-08-14T05:50:25.516Z,68.00
2018-08-14T05:51:25.556Z,63.20
2018-08-14T05:52:25.605Z,71.10
2018-08-14T05:53:25.682Z,70.00
2018-08-14T05:54:25.656Z,64.20
2018-08-14T05:55:25.854Z,69.60
2018-08-14T05:56:25.746Z,75.70
2018-08-14T05:57:25.799Z,76.30
2018-08-14T05:58:25.872Z,92.60
2018-08-14T05:59:25.884Z,84.20
2018-08-14T06:00:25.925Z,74.50
2018-08-14T06:01:25.953Z,179.30
2018-08-14T06:02:26.010Z,76.90
2018-08-14T06:03:26.062Z,80.80
2018-08-14T06:04:26.092Z,84.00
2018-08-14T06:05:26.120Z,70.50
2018-08-14T06:06:26.365Z,89.10
2018-08-14T06:07:26.419Z,91.40
2018-08-14T06:08:26.238Z,82.80
2018-08-14T06:09:26.272Z,76.80
2018-08-14T06:10:26.317Z,77.00
2018-08-14T06:11:26.351Z,84.30
2018-08-14T06:12:26.407Z,105.40
2018-08-14T06:13:26.439Z,89.90
2018-08-14T06:14:26.486Z,90.70
2018-08-14T06:15:26.533Z,87.40
2018-08-14T06:16:26.591Z,89.20
2018-08-14T06:17:26.849Z,89.00
2018-08-14T06:18:26.657Z,94.70
2018-08-14T06:19:26.699Z,90.30
2018-08-14T06:20:26.742Z,84.50
2018-08-14T06:21:26.761Z,98.10
2018-08-14T06:22:27.041Z,100.90
2018-08-14T06:23:26.846Z,99.10
2018-08-14T06:24:26.884Z,115.10
2018-08-14T06:25:26.939Z,102.80
2018-08-14T06:26:26.958Z,93.50
2018-08-14T06:27:27.028Z,106.40
2018-08-14T06:28:27.037Z,103.90
2018-08-14T06:29:27.101Z,91.60
2018-08-14T06:30:27.136Z,98.40
2018-08-14T06:31:27.192Z,115.40
2018-08-14T06:32:27.386Z,97.50
2018-08-14T06:33:27.230Z,112.50
2018-08-14T06:34:27.329Z,113.50
2018-08-14T06:35:27.399Z,125.80
2018-08-14T06:36:27.422Z,122.70
2018-08-14T06:37:27.419Z,135.70
2018-08-14T06:38:27.450Z,120.40
2018-08-14T06:39:27.506Z,121.30
2018-08-14T06:40:27.565Z,134.40
2018-08-14T06:41:27.581Z,121.10
2018-08-14T06:42:27.837Z,127.40
2018-08-14T06:43:27.687Z,122.60
2018-08-14T06:44:27.713Z,124.60
2018-08-14T06:45:27.742Z,121.50
2018-08-14T06:46:27.875Z,111.70
2018-08-14T06:47:27.966Z,119.80
2018-08-14T06:48:27.870Z,122.00
2018-08-14T06:49:27.933Z,122.50
2018-08-14T06:50:27.957Z,114.60
2018-08-14T06:51:27.988Z,125.40
2018-08-14T06:52:28.030Z,108.10
2018-08-14T06:53:28.327Z,109.20
2018-08-14T06:54:28.136Z,93.30
2018-08-14T06:55:28.141Z,110.60
2018-08-14T06:56:28.202Z,87.90
2018-08-14T06:57:28.207Z,123.30
2018-08-14T06:58:28.289Z,100.70
2018-08-14T06:59:28.536Z,102.00
2018-08-14T07:00:28.354Z,131.30
2018-08-14T07:01:28.408Z,97.50
2018-08-14T07:02:28.441Z,106.40
2018-08-14T07:03:28.489Z,123.90
2018-08-14T07:04:28.514Z,135.20
2018-08-14T07:05:28.797Z,100.50
2018-08-14T07:06:28.583Z,134.00
2018-08-14T07:07:28.634Z,312.00
2018-08-14T07:08:28.674Z,137.80
2018-08-14T07:09:28.750Z,123.30
2018-08-14T07:10:28.743Z,180.10
2018-08-14T07:11:28.944Z,138.30
2018-08-14T07:12:28.865Z,142.90
2018-08-14T07:13:28.945Z,126.90
2018-08-14T07:14:28.908Z,131.00
2018-08-14T07:15:28.958Z,126.20
2018-08-14T07:16:29.222Z,152.30
2018-08-14T07:17:29.037Z,122.30
2018-08-14T07:18:29.128Z,224.50
2018-08-14T07:19:29.129Z,130.10
2018-08-14T07:20:29.172Z,131.50
2018-08-14T07:21:29.230Z,128.30
2018-08-14T07:22:29.434Z,140.50
2018-08-14T07:23:29.284Z,140.80
2018-08-14T07:24:29.332Z,125.80
2018-08-14T07:25:29.396Z,163.60
2018-08-14T07:26:29.386Z,132.00
2018-08-14T07:27:29.434Z,135.30
2018-08-14T07:28:29.474Z,114.90
2018-08-14T07:29:29.539Z,131.10
2018-08-14T07:30:29.562Z,127.90
2018-08-14T07:31:29.603Z,282.50
2018-08-14T07:32:29.672Z,132.00
2018-08-14T07:33:29.813Z,113.60
2018-08-14T07:34:29.718Z,97.20
2018-08-14T07:35:29.751Z,116.60
2018-08-14T07:36:29.797Z,121.50
2018-08-14T07:37:29.874Z,112.90
2018-08-14T07:38:29.877Z,118.60
2018-08-14T07:39:30.130Z,113.80
2018-08-14T07:40:30.022Z,158.50
2018-08-14T07:41:30.024Z,108.00
2018-08-14T07:42:30.048Z,103.60
2018-08-14T07:43:30.083Z,131.40
2018-08-14T07:44:30.290Z,73.70
2018-08-14T07:45:30.168Z,93.40
2018-08-14T07:46:30.220Z,78.50
2018-08-14T07:47:30.266Z,160.30
2018-08-14T07:48:30.314Z,80.90
2018-08-14T07:49:30.323Z,66.60
2018-08-14T07:50:30.587Z,77.90
2018-08-14T07:51:30.431Z,76.30
2018-08-14T07:52:30.466Z,72.90
2018-08-14T07:53:30.500Z,68.40
2018-08-14T07:54:30.523Z,70.70
2018-08-14T07:55:30.574Z,81.70
2018-08-14T07:56:30.760Z,88.70
2018-08-14T07:57:30.646Z,84.30
2018-08-14T07:58:30.670Z,70.30
2018-08-14T07:59:30.753Z,69.20
2018-08-14T08:00:30.798Z,70.10
2018-08-14T08:01:30.815Z,98.50
2018-08-14T08:02:31.053Z,69.50
2018-08-14T08:03:30.880Z,64.30
2018-08-14T08:04:30.924Z,109.70
2018-08-14T08:05:30.962Z,59.60
2018-08-14T08:06:31.051Z,67.70
2018-08-14T08:07:31.123Z,65.20
2018-08-14T08:08:31.077Z,104.30
2018-08-14T08:09:31.360Z,70.20
2018-08-14T08:10:31.276Z,67.90
2018-08-14T08:11:31.260Z,76.00
2018-08-14T08:12:31.270Z,63.50
2018-08-14T08:13:31.305Z,83.40
2018-08-14T08:14:31.523Z,63.00
2018-08-14T08:15:31.394Z,95.00
2018-08-14T08:16:31.430Z,60.50
2018-08-14T08:17:31.510Z,78.40
2018-08-14T08:18:31.555Z,71.60
2018-08-14T08:19:31.545Z,82.50
2018-08-14T08:20:31.589Z,73.30
2018-08-14T08:21:31.614Z,100.00
2018-08-14T08:22:31.665Z,190.60
2018-08-14T08:23:31.716Z,81.60
2018-08-14T08:24:31.905Z,95.00
2018-08-14T08:25:31.770Z,67.00
2018-08-14T08:26:31.830Z,101.20
2018-08-14T08:27:31.871Z,87.40
2018-08-14T08:28:31.900Z,86.30
2018-08-14T08:29:32.131Z,100.60
2018-08-14T08:30:32.021Z,77.10
2018-08-14T08:31:32.028Z,98.40
2018-08-14T08:32:32.060Z,79.60
2018-08-14T08:33:32.157Z,72.60
2018-08-14T08:34:32.182Z,235.10
2018-08-14T08:35:32.369Z,69.20
2018-08-14T08:36:32.234Z,88.10
2018-08-14T08:37:32.292Z,133.80
2018-08-14T08:38:32.335Z,80.90
2018-08-14T08:39:32.352Z,97.80
2018-08-14T08:40:32.394Z,116.60
2018-08-14T08:41:32.563Z,94.90
2018-08-14T08:42:32.482Z,93.70
2018-08-14T08:43:32.523Z,102.90
2018-08-14T08:44:32.542Z,113.30
2018-08-14T08:45:32.609Z,99.30
2018-08-14T08:46:32.629Z,94.50
2018-08-14T08:47:32.657Z,205.20
2018-08-14T08:48:32.710Z,107.50
2018-08-14T08:49:32.741Z,81.80
2018-08-14T08:50:32.799Z,93.70
2018-08-14T08:51:32.874Z,88.10
2018-08-14T08:52:32.874Z,85.90
2018-08-14T08:53:32.911Z,92.40
2018-08-14T08:54:32.958Z,96.00
2018-08-14T08:55:32.990Z,93.70
2018-08-14T08:56:33.039Z,84.10
2018-08-14T08:57:33.068Z,78.40
2018-08-14T08:58:33.114Z,113.80
2018-08-14T08:59:33.209Z,126.70
2018-08-14T09:00:33.178Z,95.40
2018-08-14T09:01:33.229Z,90.70
2018-08-14T09:02:33.283Z,96.00
2018-08-14T09:03:33.544Z,117.10
2018-08-14T09:04:33.361Z,86.00
2018-08-14T09:05:33.442Z,97.90
2018-08-14T09:06:33.423Z,91.70
2018-08-14T09:07:33.473Z,93.40
2018-08-14T09:08:33.524Z,78.60
2018-08-14T09:09:33.537Z,118.20
2018-08-14T09:10:33.592Z,153.30
2018-08-14T09:11:33.661Z,84.20
2018-08-14T09:12:33.675Z,90.20
2018-08-14T09:13:33.730Z,96.50
2018-08-14T09:14:33.745Z,100.10
2018-08-14T09:15:33.803Z,112.60
2018-08-14T09:16:33.851Z,111.10
2018-08-14T09:17:33.910Z,95.50
2018-08-14T09:18:33.962Z,96.20
2018-08-14T09:19:33.951Z,100.70
2018-08-14T09:20:33.989Z,177.80
2018-08-14T09:21:34.059Z,104.30
2018-08-14T09:22:34.077Z,127.50
2018-08-14T09:23:34.321Z,112.70
2018-08-14T09:24:34.187Z,125.50
2018-08-14T09:25:34.197Z,124.70
2018-08-14T09:26:34.257Z,141.40
2018-08-14T09:27:34.281Z,124.50
2018-08-14T09:28:34.304Z,256.60
2018-08-14T09:29:34.375Z,204.00
2018-08-14T09:30:34.557Z,263.90
2018-08-14T09:31:34.454Z,130.90
2018-08-14T09:32:34.500Z,127.80
2018-08-14T09:33:34.508Z,134.70
2018-08-14T09:34:34.547Z,180.50
2018-08-14T09:35:34.592Z,159.50
2018-08-14T09:36:34.639Z,193.10
2018-08-14T09:37:34.692Z,150.30
2018-08-14T09:38:34.720Z,139.20
2018-08-14T09:39:34.747Z,145.70
2018-08-14T09:40:34.985Z,139.80
2018-08-14T09:41:34.839Z,146.60
2018-08-14T09:42:34.864Z,132.50
2018-08-14T09:43:34.898Z,134.30
2018-08-14T09:44:34.953Z,129.20
2018-08-14T09:45:34.976Z,141.80
2018-08-14T09:46:35.032Z,133.90
2018-08-14T09:47:35.115Z,117.70
2018-08-14T09:48:35.121Z,170.30
2018-08-14T09:49:35.171Z,124.50
2018-08-14T09:50:35.197Z,130.20
2018-08-14T09:51:35.222Z,209.20
2018-08-14T09:52:35.300Z,152.80
2018-08-14T09:53:35.425Z,128.10
2018-08-14T09:54:35.354Z,129.00
2018-08-14T09:55:35.615Z,128.60
2018-08-14T09:56:35.458Z,151.60
2018-08-14T09:57:35.491Z,122.30
2018-08-14T09:58:35.496Z,143.20
2018-08-14T09:59:35.563Z,127.70
2018-08-14T10:00:35.641Z,116.00
2018-08-14T10:01:35.940Z,112.80
2018-08-14T10:02:35.683Z,110.10
2018-08-14T10:03:35.728Z,114.70
2018-08-14T10:04:35.804Z,127.40
2018-08-14T10:05:35.815Z,172.50
2018-08-14T10:06:35.922Z,92.70
2018-08-14T10:07:35.886Z,103.80
2018-08-14T10:08:36.101Z,156.10
2018-08-14T10:09:35.961Z,128.80
2018-08-14T10:10:35.999Z,79.00
2018-08-14T10:11:36.059Z,68.60
2018-08-14T10:12:36.097Z,75.80
2018-08-14T10:13:36.118Z,83.30
2018-08-14T10:14:36.310Z,121.20
2018-08-14T10:15:36.187Z,62.10
2018-08-14T10:16:36.248Z,93.80
2018-08-14T10:17:36.278Z,74.50
2018-08-14T10:18:36.338Z,64.30
2018-08-14T10:19:36.373Z,70.50
2018-08-14T10:20:36.594Z,62.90
2018-08-14T10:21:36.511Z,67.40
2018-08-14T10:22:36.495Z,51.60
2018-08-14T10:23:36.532Z,88.50
2018-08-14T10:24:36.569Z,67.80
2018-08-14T10:25:36.813Z,55.40
2018-08-14T10:26:36.663Z,52.80
2018-08-14T10:27:36.699Z,56.90
2018-08-14T10:28:36.826Z,73.00
2018-08-14T10:29:36.755Z,49.00
2018-08-14T10:30:36.787Z,57.90
2018-08-14T10:31:36.851Z,48.80
2018-08-14T10:32:36.890Z,44.00
2018-08-14T10:33:36.948Z,45.20
2018-08-14T10:34:36.960Z,50.30
2018-08-14T10:35:37.018Z,51.00
2018-08-14T10:36:37.032Z,61.10
2018-08-14T10:37:37.117Z,44.80
2018-08-14T10:38:37.136Z,50.20
2018-08-14T10:39:37.203Z,48.20
2018-08-14T10:40:37.230Z,51.40
2018-08-14T10:41:37.253Z,49.70
2018-08-14T10:42:37.493Z,42.60
2018-08-14T10:43:37.339Z,49.10
2018-08-14T10:44:37.390Z,41.40
2018-08-14T10:45:37.445Z,40.40
2018-08-14T10:46:37.456Z,36.60
2018-08-14T10:47:37.493Z,60.40
2018-08-14T10:48:37.705Z,42.30
2018-08-14T10:49:37.597Z,54.50
2018-08-14T10:50:37.638Z,50.80
2018-08-14T10:51:37.689Z,46.10
2018-08-14T10:52:37.765Z,43.80
2018-08-14T10:53:37.770Z,45.50
2018-08-14T10:54:37.783Z,39.20
2018-08-14T10:55:37.858Z,37.90
2018-08-14T10:56:37.879Z,40.40
2018-08-14T10:57:37.913Z,39.00
2018-08-14T10:58:38.117Z,46.30
2018-08-14T10:59:38.027Z,65.60
2018-08-14T11:00:38.054Z,40.30
2018-08-14T11:01:38.111Z,72.30
2018-08-14T11:02:38.142Z,42.20
2018-08-14T11:03:38.223Z,40.20
2018-08-14T11:04:38.361Z,39.90
2018-08-14T11:05:38.252Z,37.80
2018-08-14T11:06:38.307Z,44.50
2018-08-14T11:07:38.410Z,41.30
2018-08-14T11:08:38.368Z,39.00
2018-08-14T11:09:38.402Z,40.90
2018-08-14T11:10:38.528Z,42.80
2018-08-14T11:11:38.492Z,43.00
2018-08-14T11:12:38.564Z,40.20
2018-08-14T11:13:38.604Z,45.10
2018-08-14T11:14:38.843Z,47.10
2018-08-14T11:15:38.673Z,50.70
2018-08-14T11:16:38.741Z,52.80
2018-08-14T11:17:38.773Z,55.70
2018-08-14T11:18:38.868Z,65.30
2018-08-14T11:19:38.873Z,54.80
2018-08-14T11:20:38.880Z,56.80
2018-08-14T11:21:38.940Z,48.70
2018-08-14T11:22:38.987Z,44.50
2018-08-14T11:23:39.032Z,38.80
2018-08-14T11:24:39.110Z,35.80
2018-08-14T11:25:39.130Z,40.10
2018-08-14T11:26:39.225Z,46.10
2018-08-14T11:27:39.228Z,60.60
2018-08-14T11:28:39.269Z,48.50
2018-08-14T11:29:39.300Z,48.70
2018-08-14T11:30:39.406Z,46.10
2018-08-14T11:31:39.407Z,55.60
2018-08-14T11:32:39.449Z,43.10
2018-08-14T11:33:39.479Z,43.00
2018-08-14T11:34:39.538Z,39.50
2018-08-14T11:35:39.581Z,53.60
2018-08-14T11:36:39.629Z,46.70
2018-08-14T11:37:39.705Z,41.70
2018-08-14T11:38:39.730Z,43.70
2018-08-14T11:39:39.765Z,51.20
2018-08-14T11:40:39.817Z,42.20
2018-08-14T11:41:39.950Z,42.60
2018-08-14T11:42:39.896Z,37.10
2018-08-14T11:43:39.972Z,43.90
2018-08-14T11:44:40.017Z,38.70
2018-08-14T11:45:40.081Z,41.00
2018-08-14T11:46:40.153Z,32.70
2018-08-14T11:47:40.165Z,38.60
2018-08-14T11:48:40.245Z,41.30
2018-08-14T11:49:40.271Z,41.70
2018-08-14T11:50:40.301Z,34.20
2018-08-14T11:51:40.343Z,38.90
2018-08-14T11:52:40.450Z,38.90
2018-08-14T11:53:40.492Z,38.80
2018-08-14T11:54:40.508Z,40.10
2018-08-14T11:55:40.558Z,38.20
2018-08-14T11:56:40.597Z,39.30
2018-08-14T11:57:40.649Z,40.30
2018-08-14T11:58:40.974Z,38.50
2018-08-14T11:59:40.787Z,40.40
2018-08-14T12:00:40.814Z,40.10
2018-08-14T12:01:40.889Z,42.00
2018-08-14T12:02:40.872Z,49.60
2018-08-14T12:03:40.941Z,51.00
2018-08-14T12:04:41.009Z,49.60
2018-08-14T12:05:41.057Z,50.10
2018-08-14T12:06:41.105Z,52.60
2018-08-14T12:07:41.134Z,53.70
2018-08-14T12:08:41.212Z,54.10
2018-08-14T12:09:41.259Z,51.40
2018-08-14T12:10:41.292Z,47.00
2018-08-14T12:11:41.351Z,53.90
2018-08-14T12:12:41.436Z,58.40
2018-08-14T12:13:41.459Z,54.70
2018-08-14T12:14:41.515Z,52.90
2018-08-14T12:15:41.621Z,49.20
2018-08-14T12:16:41.628Z,47.20
2018-08-14T12:17:41.673Z,44.50
2018-08-14T12:18:41.723Z,42.80
2018-08-14T12:19:41.750Z,39.10
2018-08-14T12:20:41.837Z,51.20
2018-08-14T12:21:41.879Z,45.60
2018-08-14T12:22:41.923Z,45.10
2018-08-14T12:23:41.989Z,49.90
2018-08-14T12:24:42.003Z,35.70
2018-08-14T12:25:42.102Z,44.50
2018-08-14T12:26:42.109Z,50.30
2018-08-14T12:27:42.188Z,47.80
2018-08-14T12:28:42.249Z,47.40
2018-08-14T12:29:42.305Z,48.90
2018-08-14T12:30:42.315Z,46.20
2018-08-14T12:31:42.400Z,43.70
2018-08-14T12:32:42.438Z,35.50
2018-08-14T12:33:42.499Z,42.50
2018-08-14T12:34:42.519Z,41.50
2018-08-14T12:35:42.621Z,40.20
2018-08-14T12:36:42.661Z,31.60
2018-08-14T12:37:42.700Z,39.00
2018-08-14T12:38:42.757Z,25.70
2018-08-14T12:39:42.820Z,32.00
2018-08-14T12:40:42.919Z,36.50
2018-08-14T12:41:42.922Z,29.50
2018-08-14T12:42:42.981Z,27.60
2018-08-14T12:43:43.018Z,29.30
2018-08-14T12:44:43.067Z,54.80
2018-08-14T12:45:43.118Z,55.30
2018-08-14T12:46:43.185Z,50.20